Time;durP1;ratioP1;P1;durP2;ratioP2;P2;SDS_P1;SDS_P2;PMS_P1;PMS_P2;Temp;Humidity;BMP_temperature;BMP_pressure;BME280_temperature;BME280_humidity;BME280_pressure;Samples;Min_cycle;Max_cycle;Signal;HPM_P1;HPM_P2
2021/03/18 00:00:43;;;;;;;1.88;1.70;;;8.20;87.90;;;;;;5041947;28;20052;-58
2021/03/18 00:03:16;;;;;;;2.42;1.45;;;8.20;87.80;;;;;;5075874;28;20045;-58
2021/03/18 00:05:47;;;;;;;1.27;1.17;;;8.20;87.70;;;;;;5058272;28;20396;-58
2021/03/18 00:08:16;;;;;;;1.35;1.20;;;8.10;88.20;;;;;;5075857;28;20044;-58
2021/03/18 00:10:50;;;;;;;1.20;1.05;;;8.20;88.30;;;;;;5075693;28;20083;-58
2021/03/18 00:13:20;;;;;;;1.23;0.80;;;8.20;88.50;;;;;;5075916;28;20135;-58
2021/03/18 00:15:48;;;;;;;2.40;0.82;;;8.20;88.80;;;;;;5057803;28;20075;-58
2021/03/18 00:18:20;;;;;;;1.92;1.27;;;8.10;88.90;;;;;;5042012;28;20041;-58
2021/03/18 00:20:53;;;;;;;2.60;0.88;;;8.20;89.00;;;;;;5075796;28;20144;-58
2021/03/18 00:23:24;;;;;;;3.17;1.08;;;8.20;89.20;;;;;;5041223;28;20068;-58
2021/03/18 00:25:51;;;;;;;1.55;1.05;;;8.10;89.30;;;;;;5058078;28;20049;-58
2021/03/18 00:28:19;;;;;;;0.68;0.68;;;8.10;89.40;;;;;;5074225;28;20048;-59
2021/03/18 00:30:46;;;;;;;1.05;0.75;;;8.10;89.70;;;;;;5011129;28;20057;-58
2021/03/18 00:33:15;;;;;;;1.27;0.95;;;8.10;90.00;;;;;;5021367;28;20053;-58
2021/03/18 00:35:43;;;;;;;2.22;1.15;;;8.10;89.60;;;;;;5005086;28;20055;-58
2021/03/18 00:38:11;;;;;;;1.88;1.00;;;8.10;89.80;;;;;;5020994;28;20048;-58
2021/03/18 00:40:46;;;;;;;2.05;1.20;;;8.10;89.70;;;;;;5021150;28;20044;-58
2021/03/18 00:43:16;;;;;;;1.85;1.05;;;8.10;89.80;;;;;;5037403;28;20495;-58
2021/03/18 00:45:46;;;;;;;2.08;1.27;;;8.10;89.60;;;;;;5037542;28;20049;-58
2021/03/18 00:48:15;;;;;;;2.72;1.42;;;8.10;89.70;;;;;;5037507;28;20407;-57
2021/03/18 00:50:50;;;;;;;3.25;1.55;;;8.10;89.60;;;;;;5020806;28;20056;-58
2021/03/18 00:53:55;;;;;;;2.22;1.38;;;8.10;89.50;;;;;;5037233;28;20136;-58
2021/03/18 00:56:23;;;;;;;4.07;1.20;;;8.10;89.30;;;;;;5015752;28;20088;-60
2021/03/18 00:58:56;;;;;;;1.50;1.00;;;8.10;89.60;;;;;;5038241;28;20045;-58
2021/03/18 01:01:26;;;;;;;2.03;1.77;;;8.10;89.70;;;;;;5036973;28;20048;-58
2021/03/18 01:03:58;;;;;;;1.40;0.90;;;8.10;89.90;;;;;;5036944;28;20055;-58
2021/03/18 01:06:30;;;;;;;3.78;1.42;;;8.20;89.80;;;;;;5054798;28;20079;-58
2021/03/18 01:09:02;;;;;;;1.15;0.90;;;8.10;89.90;;;;;;5037005;28;20060;-58
2021/03/18 01:11:34;;;;;;;3.10;1.35;;;8.20;89.90;;;;;;5036744;28;20055;-58
2021/03/18 01:14:09;;;;;;;2.28;1.20;;;8.10;89.90;;;;;;5054608;28;20053;-58
2021/03/18 01:16:47;;;;;;;1.80;1.20;;;8.00;89.80;;;;;;5036685;28;20102;-58
2021/03/18 01:19:22;;;;;;;1.13;0.90;;;8.00;90.00;;;;;;5036878;28;20071;-58
2021/03/18 01:21:56;;;;;;;1.00;0.90;;;8.00;90.20;;;;;;5054541;28;20506;-59
2021/03/18 01:24:23;;;;;;;1.92;1.13;;;8.00;90.10;;;;;;5036620;28;20491;-59
2021/03/18 01:26:50;;;;;;;2.17;1.30;;;8.00;90.10;;;;;;5054364;28;20132;-58
2021/03/18 01:29:18;;;;;;;3.08;1.50;;;8.00;90.20;;;;;;5019982;28;20053;-59
2021/03/18 01:31:45;;;;;;;1.33;0.82;;;8.00;90.20;;;;;;5019322;28;20041;-58
2021/03/18 01:34:13;;;;;;;5.20;1.83;;;8.00;90.20;;;;;;5054310;28;20095;-58
2021/03/18 01:36:45;;;;;;;3.10;1.10;;;8.00;90.20;;;;;;5036587;28;20131;-58
2021/03/18 01:39:13;;;;;;;7.28;1.30;;;8.00;90.10;;;;;;5036601;28;20045;-58
2021/03/18 01:41:40;;;;;;;1.52;1.38;;;7.90;90.10;;;;;;5036442;28;20044;-58
2021/03/18 01:44:07;;;;;;;2.38;1.70;;;7.90;90.10;;;;;;5036411;28;20496;-58
2021/03/18 01:46:35;;;;;;;3.85;1.50;;;7.90;90.10;;;;;;5036306;28;20048;-56
2021/03/18 01:49:03;;;;;;;3.50;1.38;;;7.90;90.10;;;;;;5036407;28;20131;-56
2021/03/18 01:51:36;;;;;;;1.75;1.13;;;7.90;90.00;;;;;;5052684;28;20516;-58
2021/03/18 01:54:06;;;;;;;3.17;1.10;;;8.00;89.50;;;;;;5019665;28;20059;-58
2021/03/18 01:56:36;;;;;;;1.67;1.00;;;7.90;89.30;;;;;;5019479;28;20045;-57
2021/03/18 01:59:04;;;;;;;2.55;1.30;;;8.00;89.10;;;;;;5036044;28;20187;-57
2021/03/18 02:01:31;;;;;;;2.22;1.00;;;7.90;88.60;;;;;;5035943;28;20044;-58
2021/03/18 02:04:03;;;;;;;2.25;1.00;;;7.90;88.30;;;;;;5053822;28;20053;-57
2021/03/18 02:06:31;;;;;;;1.63;0.70;;;7.90;88.20;;;;;;5019395;28;20048;-58
2021/03/18 02:08:58;;;;;;;1.30;1.02;;;7.90;88.40;;;;;;5053598;28;20053;-58
2021/03/18 02:11:25;;;;;;;3.70;2.13;;;7.80;88.50;;;;;;5035913;28;20442;-58
2021/03/18 02:13:53;;;;;;;1.92;1.30;;;7.70;88.70;;;;;;5035924;28;20132;-57
2021/03/18 02:16:27;;;;;;;6.53;1.65;;;7.70;89.10;;;;;;5035828;28;20503;-58
2021/03/18 02:19:10;;;;;;;2.42;1.10;;;7.60;89.30;;;;;;5035839;28;20057;-57
2021/03/18 02:21:37;;;;;;;0.90;0.80;;;7.60;89.50;;;;;;5035923;28;20133;-58
2021/03/18 02:24:20;;;;;;;2.17;1.20;;;7.50;89.60;;;;;;5019098;28;20057;-57
2021/03/18 02:27:25;;;;;;;2.30;1.10;;;7.50;89.90;;;;;;5035760;28;20045;-57
2021/03/18 02:30:31;;;;;;;1.70;1.08;;;7.50;89.80;;;;;;5024833;28;20091;-57
2021/03/18 02:33:24;;;;;;;1.67;0.85;;;7.50;90.00;;;;;;5060546;28;20048;-56
2021/03/18 02:36:08;;;;;;;2.50;1.13;;;7.40;89.70;;;;;;5039109;28;20139;-57
2021/03/18 02:38:41;;;;;;;2.15;1.02;;;7.50;89.50;;;;;;5023398;28;20144;-58
2021/03/18 02:41:40;;;;;;;3.08;1.50;;;7.50;89.20;;;;;;5022760;28;20049;-57
2021/03/18 02:44:22;;;;;;;1.55;1.13;;;7.50;89.00;;;;;;5068350;28;20076;-58
2021/03/18 02:46:57;;;;;;;2.00;1.20;;;7.50;88.90;;;;;;5073303;28;20085;-58
2021/03/18 02:49:27;;;;;;;3.00;1.27;;;7.50;88.50;;;;;;5073373;28;20137;-58
2021/03/18 02:51:56;;;;;;;3.85;1.30;;;7.40;88.30;;;;;;5038755;28;20572;-57
2021/03/18 02:54:25;;;;;;;2.00;1.02;;;7.30;88.70;;;;;;5038199;28;20052;-58
2021/03/18 02:56:57;;;;;;;1.90;1.30;;;7.40;88.80;;;;;;5038835;28;20399;-57
2021/03/18 02:59:31;;;;;;;1.92;1.30;;;7.30;88.80;;;;;;5038866;28;20041;-58
2021/03/18 03:02:10;;;;;;;1.73;1.25;;;7.30;88.80;;;;;;5073362;28;20076;-57
2021/03/18 03:04:41;;;;;;;3.13;1.67;;;7.30;89.00;;;;;;5039712;28;20099;-57
2021/03/18 03:07:14;;;;;;;3.85;1.30;;;7.30;88.90;;;;;;5038630;28;20041;-56
2021/03/18 03:09:48;;;;;;;2.00;1.13;;;7.30;88.80;;;;;;5022537;28;20045;-57
2021/03/18 03:12:20;;;;;;;2.28;1.27;;;7.30;88.80;;;;;;5056701;28;20499;-57
2021/03/18 03:14:51;;;;;;;1.40;1.13;;;7.30;88.80;;;;;;5076907;28;20060;-57
2021/03/18 03:17:20;;;;;;;2.90;0.93;;;7.30;88.80;;;;;;5059172;28;20059;-56
2021/03/18 03:19:49;;;;;;;3.80;1.50;;;7.30;88.80;;;;;;5042362;28;20041;-55
2021/03/18 03:22:20;;;;;;;2.80;1.30;;;7.30;88.70;;;;;;5076998;28;20055;-57
2021/03/18 03:24:48;;;;;;;5.15;2.17;;;7.30;88.50;;;;;;5042229;28;20052;-55
2021/03/18 03:27:26;;;;;;;1.48;1.20;;;7.20;88.70;;;;;;5059210;28;20048;-56
2021/03/18 03:29:56;;;;;;;2.33;1.35;;;7.20;88.80;;;;;;5059309;28;20056;-57
2021/03/18 03:32:26;;;;;;;2.03;1.33;;;7.20;89.00;;;;;;5042016;28;20053;-58
2021/03/18 03:34:57;;;;;;;1.60;0.90;;;7.20;88.80;;;;;;5058793;28;20482;-57
2021/03/18 03:37:24;;;;;;;4.72;1.17;;;7.10;88.80;;;;;;5075123;28;20051;-58
2021/03/18 03:39:51;;;;;;;1.98;1.30;;;7.10;89.00;;;;;;5058697;28;20047;-57
2021/03/18 03:42:19;;;;;;;1.00;0.90;;;7.10;89.30;;;;;;5076549;28;20056;-57
2021/03/18 03:44:46;;;;;;;3.10;1.30;;;7.00;89.20;;;;;;5058453;28;20127;-57
2021/03/18 03:47:14;;;;;;;2.97;1.27;;;7.00;89.50;;;;;;5058572;28;20048;-57
2021/03/18 03:49:42;;;;;;;2.67;1.45;;;7.00;89.30;;;;;;5058688;28;20056;-57
2021/03/18 03:52:53;;;;;;;1.27;1.00;;;7.00;89.40;;;;;;5058260;28;20076;-57
2021/03/18 03:55:33;;;;;;;2.25;1.42;;;7.00;89.60;;;;;;4978495;28;20058;-57
2021/03/18 03:58:10;;;;;;;2.67;1.70;;;7.00;89.40;;;;;;5054848;28;20051;-57
2021/03/18 04:00:40;;;;;;;1.80;1.17;;;7.10;89.40;;;;;;5041645;28;20406;-57
2021/03/18 04:03:11;;;;;;;2.58;1.42;;;7.10;89.40;;;;;;5025431;28;20048;-57
2021/03/18 04:05:43;;;;;;;2.65;1.30;;;7.10;89.60;;;;;;5075211;28;20049;-58
2021/03/18 04:08:13;;;;;;;2.25;1.20;;;7.10;89.50;;;;;;5076044;28;20177;-57
2021/03/18 04:10:45;;;;;;;3.15;1.30;;;7.10;89.60;;;;;;5058131;28;20060;-57
2021/03/18 04:13:14;;;;;;;2.28;1.30;;;7.10;89.80;;;;;;5058062;28;20061;-57
2021/03/18 04:15:48;;;;;;;2.97;1.52;;;7.10;89.90;;;;;;5058557;28;20048;-57
2021/03/18 04:18:16;;;;;;;3.58;1.70;;;7.10;89.90;;;;;;5074883;28;20048;-58
2021/03/18 04:20:46;;;;;;;5.22;1.60;;;7.10;89.90;;;;;;5076103;28;20055;-57
2021/03/18 04:23:20;;;;;;;1.85;1.33;;;7.20;89.70;;;;;;5041176;28;20044;-57
2021/03/18 04:25:48;;;;;;;2.20;1.40;;;7.20;89.90;;;;;;5057951;28;20453;-57
2021/03/18 04:28:16;;;;;;;1.58;1.25;;;7.20;90.00;;;;;;5041321;28;20060;-57
2021/03/18 04:30:44;;;;;;;1.83;1.45;;;7.20;90.10;;;;;;5057304;28;20056;-57
2021/03/18 04:33:12;;;;;;;2.85;2.35;;;7.20;90.10;;;;;;5057742;28;20048;-57
2021/03/18 04:35:46;;;;;;;2.33;1.30;;;7.10;90.00;;;;;;5058046;28;20056;-57
2021/03/18 04:38:14;;;;;;;2.40;1.45;;;7.10;90.10;;;;;;5057452;28;20052;-57
2021/03/18 04:40:45;;;;;;;2.78;1.25;;;7.10;90.20;;;;;;5058135;28;20060;-57
2021/03/18 04:43:13;;;;;;;3.63;1.55;;;7.10;90.30;;;;;;5057528;28;20053;-57
2021/03/18 04:45:41;;;;;;;1.90;1.20;;;7.10;90.30;;;;;;5024650;28;20449;-57
2021/03/18 04:48:10;;;;;;;3.92;1.45;;;7.10;90.30;;;;;;5057424;28;20556;-58
2021/03/18 04:50:40;;;;;;;4.57;2.17;;;7.10;90.60;;;;;;5057882;28;20044;-58
2021/03/18 04:53:11;;;;;;;2.00;1.63;;;7.10;90.40;;;;;;5041242;28;20053;-57
2021/03/18 04:55:39;;;;;;;2.30;1.52;;;7.10;90.50;;;;;;5057306;28;20371;-58
2021/03/18 04:58:09;;;;;;;1.85;1.17;;;7.10;90.60;;;;;;5040891;28;20049;-58
2021/03/18 05:00:47;;;;;;;3.40;1.35;;;7.10;90.60;;;;;;5041903;28;20477;-57
2021/03/18 05:03:15;;;;;;;3.00;1.65;;;7.10;90.80;;;;;;5074775;28;20403;-56
2021/03/18 05:05:43;;;;;;;2.28;1.20;;;7.10;90.80;;;;;;5074828;28;20053;-58
2021/03/18 05:08:17;;;;;;;3.53;1.55;;;7.10;90.80;;;;;;5057070;28;20049;-57
2021/03/18 05:10:46;;;;;;;2.75;1.73;;;7.20;90.90;;;;;;5040234;28;20049;-58
2021/03/18 05:13:14;;;;;;;3.83;2.15;;;7.30;90.80;;;;;;5040333;28;20048;-57
2021/03/18 05:15:42;;;;;;;3.95;2.25;;;7.30;90.80;;;;;;5023933;28;20048;-57
2021/03/18 05:18:17;;;;;;;3.20;2.30;;;7.50;90.70;;;;;;5040063;28;20045;-57
2021/03/18 05:20:48;;;;;;;3.30;1.60;;;7.60;90.50;;;;;;5074463;28;20502;-58
2021/03/18 05:23:19;;;;;;;4.13;1.88;;;7.80;90.40;;;;;;5056310;28;20501;-59
2021/03/18 05:25:47;;;;;;;2.75;1.70;;;7.90;90.20;;;;;;5056395;28;20128;-58
2021/03/18 05:28:15;;;;;;;2.22;1.55;;;8.10;90.00;;;;;;5038350;28;20098;-58
2021/03/18 05:30:46;;;;;;;3.10;2.28;;;8.30;90.00;;;;;;5018602;28;20145;-59
2021/03/18 05:33:14;;;;;;;3.33;1.88;;;8.40;89.40;;;;;;5024273;28;20041;-59
2021/03/18 05:35:43;;;;;;;6.40;1.95;;;8.60;88.80;;;;;;5010731;28;20045;-58
2021/03/18 05:38:12;;;;;;;3.55;1.70;;;8.70;88.20;;;;;;4986824;28;20056;-58
2021/03/18 05:40:46;;;;;;;4.15;1.90;;;8.90;87.80;;;;;;5045404;28;20051;-59
2021/03/18 05:43:14;;;;;;;4.03;2.45;;;9.10;87.70;;;;;;5066655;28;20056;-59
2021/03/18 05:45:41;;;;;;;4.90;1.85;;;9.30;86.90;;;;;;5038724;28;20045;-58
2021/03/18 05:48:11;;;;;;;3.15;1.42;;;9.40;86.50;;;;;;5035129;28;20052;-58
2021/03/18 05:50:43;;;;;;;2.63;1.60;;;9.50;86.30;;;;;;5035743;28;20037;-57
2021/03/18 05:53:11;;;;;;;1.58;1.10;;;9.70;85.90;;;;;;5045343;28;20415;-57
2021/03/18 05:55:39;;;;;;;3.50;2.58;;;9.90;85.30;;;;;;5019953;28;20049;-58
2021/03/18 05:58:07;;;;;;;5.28;2.40;;;10.10;84.70;;;;;;5036386;28;20087;-56
2021/03/18 06:00:36;;;;;;;3.50;1.85;;;10.30;84.50;;;;;;5003411;28;20491;-58
2021/03/18 06:03:07;;;;;;;4.68;1.73;;;10.40;84.10;;;;;;5053816;28;20414;-58
2021/03/18 06:05:42;;;;;;;2.55;1.88;;;10.60;83.60;;;;;;5050761;28;20048;-57
2021/03/18 06:08:10;;;;;;;2.10;1.48;;;10.80;83.20;;;;;;5016996;28;20128;-59
2021/03/18 06:10:37;;;;;;;2.58;1.30;;;11.00;82.90;;;;;;5034242;28;20091;-57
2021/03/18 06:13:07;;;;;;;2.63;1.60;;;11.10;82.60;;;;;;5036080;28;20047;-58
2021/03/18 06:15:34;;;;;;;2.70;1.60;;;11.30;82.20;;;;;;5034951;28;20047;-59
2021/03/18 06:18:04;;;;;;;3.13;1.60;;;11.30;81.90;;;;;;5051883;28;20057;-57
2021/03/18 06:20:32;;;;;;;3.72;1.45;;;11.40;81.40;;;;;;5019252;28;20045;-58
2021/03/18 06:23:08;;;;;;;2.00;1.45;;;11.50;81.40;;;;;;5019507;28;20049;-58
2021/03/18 06:25:40;;;;;;;3.33;1.75;;;11.60;81.60;;;;;;5019270;28;20057;-58
2021/03/18 06:28:26;;;;;;;5.47;1.70;;;11.80;81.40;;;;;;5036222;28;20125;-57
2021/03/18 06:31:18;;;;;;;2.38;1.40;;;12.00;81.20;;;;;;5014921;28;20048;-58
2021/03/18 06:33:50;;;;;;;3.83;1.92;;;12.20;80.40;;;;;;5039030;28;20041;-58
2021/03/18 06:36:33;;;;;;;5.03;1.38;;;12.50;80.10;;;;;;5073616;28;20057;-58
2021/03/18 06:39:14;;;;;;;1.95;1.50;;;12.70;79.40;;;;;;5055733;28;20122;-58
2021/03/18 06:41:50;;;;;;;3.58;1.75;;;12.90;78.70;;;;;;5056099;28;20502;-58
2021/03/18 06:44:29;;;;;;;4.33;2.47;;;13.10;78.20;;;;;;5073473;28;20056;-58
2021/03/18 06:47:11;;;;;;;6.15;2.80;;;13.30;77.90;;;;;;5058318;28;20068;-58
2021/03/18 06:49:41;;;;;;;4.05;2.15;;;13.50;77.90;;;;;;5077391;28;20098;-58
2021/03/18 06:52:13;;;;;;;10.45;2.10;;;13.60;77.70;;;;;;5077374;28;20053;-58
2021/03/18 06:54:42;;;;;;;8.75;2.40;;;13.80;77.30;;;;;;5059714;28;20040;-58
2021/03/18 06:57:18;;;;;;;4.80;2.55;;;13.90;76.90;;;;;;5059684;28;20048;-58
2021/03/18 06:59:55;;;;;;;2.80;1.90;;;14.10;76.50;;;;;;5059271;28;20044;-58
2021/03/18 07:02:23;;;;;;;3.00;1.80;;;14.20;75.00;;;;;;5059736;28;20056;-58
2021/03/18 07:04:55;;;;;;;6.05;1.58;;;14.40;74.50;;;;;;5043365;28;20060;-58
2021/03/18 07:07:26;;;;;;;3.35;1.45;;;14.60;73.60;;;;;;5042541;28;20052;-58
2021/03/18 07:09:58;;;;;;;6.88;2.42;;;14.80;72.60;;;;;;5042961;28;20495;-58
2021/03/18 07:12:31;;;;;;;4.22;2.33;;;15.00;72.30;;;;;;5076717;28;20052;-59
2021/03/18 07:15:17;;;;;;;4.43;2.17;;;15.30;72.60;;;;;;5043256;28;20044;-58
2021/03/18 07:17:45;;;;;;;4.20;1.90;;;15.50;71.90;;;;;;5059195;28;20135;-58
2021/03/18 07:20:17;;;;;;;5.10;2.20;;;15.60;71.20;;;;;;5059060;28;20431;-58
2021/03/18 07:22:51;;;;;;;3.25;1.85;;;15.80;69.80;;;;;;5042377;28;20048;-59
2021/03/18 07:25:27;;;;;;;1.88;1.27;;;15.80;69.60;;;;;;5076969;28;20402;-58
2021/03/18 07:28:00;;;;;;;2.70;1.42;;;15.90;70.20;;;;;;5059096;28;20052;-58
2021/03/18 07:30:38;;;;;;;2.97;1.25;;;15.90;70.30;;;;;;5058967;28;20065;-59
2021/03/18 07:33:09;;;;;;;2.50;1.35;;;15.90;70.30;;;;;;5042800;28;20495;-59
2021/03/18 07:35:40;;;;;;;4.75;1.25;;;16.00;70.90;;;;;;5059321;28;20050;-58
2021/03/18 07:38:11;;;;;;;2.55;1.75;;;16.00;70.90;;;;;;5041906;28;20064;-58
2021/03/18 07:40:52;;;;;;;2.95;1.40;;;16.00;70.90;;;;;;5042523;28;20053;-58
2021/03/18 07:43:21;;;;;;;3.05;1.67;;;16.00;71.10;;;;;;5076594;28;20063;-58
2021/03/18 07:45:49;;;;;;;1.92;1.30;;;16.10;70.70;;;;;;5058328;28;20145;-58
2021/03/18 07:48:21;;;;;;;1.88;1.10;;;16.30;70.90;;;;;;5041835;28;20064;-58
2021/03/18 07:50:50;;;;;;;1.83;1.15;;;16.40;70.10;;;;;;5041316;28;20063;-58
2021/03/18 07:53:20;;;;;;;1.73;1.10;;;16.40;69.30;;;;;;5041801;28;20052;-58
2021/03/18 07:55:52;;;;;;;1.88;1.08;;;16.50;69.20;;;;;;5057595;28;20045;-58
2021/03/18 07:58:47;;;;;;;2.60;1.27;;;16.50;68.90;;;;;;5040493;28;20551;-58
2021/03/18 08:01:41;;;;;;;1.92;1.17;;;16.60;68.50;;;;;;5044718;28;20048;-58
2021/03/18 08:04:14;;;;;;;1.85;1.15;;;16.70;68.70;;;;;;5058116;28;20043;-58
2021/03/18 08:06:54;;;;;;;2.15;1.38;;;16.70;68.40;;;;;;5041406;28;20057;-58
2021/03/18 08:09:25;;;;;;;2.17;0.88;;;16.80;68.30;;;;;;5041554;28;20144;-58
2021/03/18 08:11:53;;;;;;;1.75;1.00;;;16.70;68.00;;;;;;5075497;28;20047;-58
2021/03/18 08:14:25;;;;;;;2.17;1.10;;;16.70;67.40;;;;;;5058352;28;20048;-60
2021/03/18 08:16:53;;;;;;;3.15;1.50;;;16.70;67.70;;;;;;5041259;28;20061;-58
2021/03/18 08:19:24;;;;;;;1.42;1.10;;;16.70;67.70;;;;;;5041413;28;20417;-59
2021/03/18 08:21:57;;;;;;;1.42;1.00;;;16.70;67.80;;;;;;5042501;28;20059;-58
2021/03/18 08:24:33;;;;;;;25.77;4.65;;;16.80;67.70;;;;;;5058502;28;20514;-58
2021/03/18 08:27:08;;;;;;;13.27;3.10;;;16.90;67.50;;;;;;5075454;28;20403;-58
2021/03/18 08:29:47;;;;;;;4.93;1.85;;;17.00;67.20;;;;;;5055883;28;20072;-59
2021/03/18 08:32:28;;;;;;;4.15;2.35;;;16.90;67.20;;;;;;5037192;28;20045;-58
2021/03/18 08:35:06;;;;;;;5.40;3.72;;;16.70;68.00;;;;;;5055284;28;20036;-58
2021/03/18 08:37:55;;;;;;;6.95;3.35;;;16.40;67.50;;;;;;5055080;28;20046;-58
2021/03/18 08:40:30;;;;;;;7.38;3.67;;;16.00;68.80;;;;;;5022382;28;20048;-58
2021/03/18 08:43:04;;;;;;;4.68;1.73;;;15.60;69.20;;;;;;5021174;28;20514;-58
2021/03/18 08:45:37;;;;;;;5.30;2.75;;;15.30;69.20;;;;;;5037272;28;20049;-58
2021/03/18 08:48:16;;;;;;;5.28;2.30;;;15.00;69.90;;;;;;5055046;28;20080;-58
2021/03/18 08:50:44;;;;;;;2.42;1.33;;;14.70;69.10;;;;;;5054737;28;20124;-58
2021/03/18 08:53:33;;;;;;;2.65;1.50;;;14.50;68.90;;;;;;5020690;28;20049;-58
2021/03/18 08:56:02;;;;;;;4.20;1.58;;;14.30;68.70;;;;;;5055103;28;20122;-58
2021/03/18 08:58:44;;;;;;;3.10;1.40;;;14.20;69.30;;;;;;5054974;28;20071;-58
2021/03/18 09:01:20;;;;;;;3.65;1.70;;;14.10;70.40;;;;;;5036807;28;20491;-59
2021/03/18 09:03:54;;;;;;;4.22;2.13;;;14.10;71.20;;;;;;5054808;28;20056;-58
2021/03/18 09:06:32;;;;;;;8.60;2.55;;;14.10;71.10;;;;;;5037153;28;20052;-58
2021/03/18 09:09:00;;;;;;;3.20;1.73;;;14.10;70.80;;;;;;5035989;28;20056;-58
2021/03/18 09:11:31;;;;;;;5.05;2.58;;;14.00;70.70;;;;;;5036636;28;20052;-58
2021/03/18 09:14:04;;;;;;;2.97;1.98;;;14.00;70.60;;;;;;5036603;28;20049;-58
2021/03/18 09:16:33;;;;;;;4.53;2.42;;;14.00;70.50;;;;;;5020149;28;20506;-58
2021/03/18 09:19:01;;;;;;;3.28;1.83;;;14.00;71.10;;;;;;5020415;28;20076;-58
2021/03/18 09:21:43;;;;;;;5.35;2.50;;;14.00;71.00;;;;;;5020059;28;20053;-58
2021/03/18 09:24:11;;;;;;;2.28;1.35;;;14.00;70.30;;;;;;5019921;28;20068;-58
2021/03/18 09:26:42;;;;;;;2.00;1.35;;;14.00;69.70;;;;;;5036892;28;20045;-57
2021/03/18 09:29:11;;;;;;;4.35;1.38;;;14.10;70.40;;;;;;5020060;28;20049;-57
2021/03/18 09:31:40;;;;;;;4.93;1.80;;;14.10;70.30;;;;;;5053936;28;20052;-57
2021/03/18 09:34:08;;;;;;;1.52;1.13;;;14.10;70.00;;;;;;5036658;28;20047;-57
2021/03/18 09:36:37;;;;;;;3.28;1.75;;;14.10;69.20;;;;;;5019850;28;20468;-56
2021/03/18 09:39:11;;;;;;;2.78;1.60;;;14.10;69.40;;;;;;5003283;28;20063;-57
2021/03/18 09:41:48;;;;;;;3.25;1.25;;;14.20;69.90;;;;;;5036235;28;20578;-57
2021/03/18 09:44:23;;;;;;;2.20;1.15;;;14.10;68.90;;;;;;5036180;28;20380;-57
2021/03/18 09:47:13;;;;;;;1.38;1.10;;;14.10;68.50;;;;;;5053820;28;20053;-57
2021/03/18 09:49:47;;;;;;;2.58;1.42;;;14.00;68.90;;;;;;5003630;28;20087;-57
2021/03/18 09:52:24;;;;;;;2.55;1.40;;;13.90;68.80;;;;;;5036620;28;20045;-57
2021/03/18 09:55:13;;;;;;;2.58;1.70;;;13.80;68.50;;;;;;5036050;28;20088;-56
2021/03/18 09:57:46;;;;;;;1.80;1.42;;;13.70;68.10;;;;;;5035666;28;20041;-57
2021/03/18 10:00:17;;;;;;;1.92;0.90;;;13.70;68.20;;;;;;5019870;28;20136;-57
2021/03/18 10:02:48;;;;;;;1.40;1.00;;;13.60;67.60;;;;;;5036443;28;20493;-57
2021/03/18 10:05:22;;;;;;;3.15;1.33;;;13.70;67.70;;;;;;5053611;28;20052;-57
2021/03/18 10:08:00;;;;;;;1.95;1.30;;;13.90;67.70;;;;;;5053713;28;20061;-57
2021/03/18 10:10:30;;;;;;;3.53;1.60;;;14.00;67.60;;;;;;5053268;28;20049;-57
2021/03/18 10:13:07;;;;;;;2.58;1.45;;;14.10;67.50;;;;;;5036399;28;20049;-57
2021/03/18 10:15:37;;;;;;;2.88;1.13;;;14.10;65.90;;;;;;5053432;28;20102;-57
2021/03/18 10:18:05;;;;;;;5.63;1.35;;;14.20;65.60;;;;;;5019329;28;20045;-57
2021/03/18 10:20:39;;;;;;;1.67;1.15;;;14.10;65.40;;;;;;5019731;28;20103;-57
2021/03/18 10:23:11;;;;;;;1.88;1.00;;;13.90;67.80;;;;;;5019244;28;20044;-57
2021/03/18 10:25:43;;;;;;;4.75;1.40;;;13.80;70.20;;;;;;5053384;28;20397;-57
2021/03/18 10:28:15;;;;;;;1.95;1.42;;;13.80;71.90;;;;;;5019189;28;20049;-57
2021/03/18 10:30:49;;;;;;;1.35;0.90;;;13.70;73.30;;;;;;5045816;28;20056;-57
2021/03/18 10:33:26;;;;;;;4.28;1.58;;;13.50;73.50;;;;;;5055650;28;20490;-58
2021/03/18 10:35:55;;;;;;;1.67;0.95;;;13.50;74.10;;;;;;5055577;28;20447;-57
2021/03/18 10:38:30;;;;;;;3.33;1.42;;;13.40;73.90;;;;;;5039053;28;20041;-59
2021/03/18 10:41:16;;;;;;;1.95;1.30;;;13.30;74.40;;;;;;5055216;28;20044;-57
2021/03/18 10:43:48;;;;;;;3.25;1.70;;;13.30;75.10;;;;;;5073084;28;20409;-57
2021/03/18 10:46:25;;;;;;;4.10;1.60;;;13.20;75.60;;;;;;5055268;28;20041;-57
2021/03/18 10:48:53;;;;;;;3.40;1.27;;;13.20;75.30;;;;;;5055662;28;20125;-57
2021/03/18 10:51:23;;;;;;;4.80;2.42;;;13.30;75.80;;;;;;5055116;28;20059;-57
2021/03/18 10:53:52;;;;;;;3.63;2.03;;;13.30;76.10;;;;;;5072945;28;20074;-57
2021/03/18 10:56:27;;;;;;;3.28;2.30;;;13.40;76.10;;;;;;5054778;28;20053;-57
2021/03/18 10:58:57;;;;;;;;;;;13.30;76.90;;;;;;5056297;28;20040;-57
2021/03/18 11:01:29;;;;;;;3.88;1.80;;;13.30;78.00;;;;;;5055308;28;19920;-57
2021/03/18 11:04:10;;;;;;;2.38;1.38;;;13.20;78.80;;;;;;5038576;28;20097;-57
2021/03/18 11:06:54;;;;;;;3.72;1.63;;;13.20;79.20;;;;;;5072933;28;20534;-58
2021/03/18 11:09:24;;;;;;;2.97;1.30;;;13.10;79.50;;;;;;5055753;28;20487;-57
2021/03/18 11:12:01;;;;;;;2.80;1.50;;;13.10;79.50;;;;;;5038619;28;20056;-57
2021/03/18 11:14:33;;;;;;;3.22;1.73;;;13.10;80.50;;;;;;5038828;28;20036;-57
2021/03/18 11:17:08;;;;;;;2.75;1.50;;;13.10;81.00;;;;;;5054790;28;20053;-55
2021/03/18 11:19:42;;;;;;;4.25;1.60;;;13.00;80.80;;;;;;5054705;28;20040;-57
2021/03/18 11:22:13;;;;;;;3.95;2.25;;;13.00;80.60;;;;;;5072216;28;20394;-50
2021/03/18 11:24:44;;;;;;;5.10;1.75;;;13.00;82.30;;;;;;5037943;28;20056;-51
2021/03/18 11:27:15;;;;;;;3.00;1.90;;;13.00;82.30;;;;;;5037290;28;20074;-54
2021/03/18 11:30:01;;;;;;;2.58;1.70;;;13.00;81.50;;;;;;5069302;28;20056;-55
2021/03/18 11:32:30;;;;;;;6.43;2.00;;;13.10;81.20;;;;;;5034047;28;20045;-55
2021/03/18 11:35:26;;;;;;;5.75;2.90;;;13.10;80.90;;;;;;5040796;28;20487;-55
2021/03/18 11:37:54;;;;;;;5.38;2.75;;;13.10;80.80;;;;;;5021153;28;20052;-55
2021/03/18 11:40:41;;;;;;;4.43;2.03;;;13.10;80.60;;;;;;5023926;28;20053;-54
2021/03/18 11:43:10;;;;;;;4.28;2.30;;;13.10;80.40;;;;;;5055457;28;20053;-56
2021/03/18 11:45:38;;;;;;;3.42;2.03;;;13.10;80.50;;;;;;5055611;28;20072;-54
2021/03/18 11:48:09;;;;;;;4.32;3.13;;;13.10;80.50;;;;;;5021251;28;20163;-54
2021/03/18 11:50:38;;;;;;;5.80;2.35;;;13.20;80.50;;;;;;5055023;28;20076;-54
2021/03/18 11:53:12;;;;;;;2.65;1.63;;;13.20;80.10;;;;;;5037113;28;20045;-55
2021/03/18 11:55:40;;;;;;;3.58;2.45;;;13.20;78.90;;;;;;5036718;28;20147;-56
2021/03/18 11:58:08;;;;;;;3.20;2.30;;;13.30;79.00;;;;;;5020838;28;20427;-55
2021/03/18 12:00:38;;;;;;;3.22;1.80;;;13.20;78.30;;;;;;5037340;28;20049;-55
2021/03/18 12:03:08;;;;;;;3.83;1.80;;;13.30;77.30;;;;;;5054910;28;20041;-55
2021/03/18 12:05:42;;;;;;;17.80;8.63;;;13.30;77.20;;;;;;5036946;28;20459;-55
2021/03/18 12:08:11;;;;;;;19.27;8.32;;;13.30;77.00;;;;;;5055141;28;20153;-55
2021/03/18 12:10:40;;;;;;;7.47;3.92;;;13.40;76.60;;;;;;5020886;28;20110;-54
2021/03/18 12:13:07;;;;;;;6.50;2.70;;;13.40;76.00;;;;;;5037181;28;20111;-54
2021/03/18 12:15:35;;;;;;;5.15;3.03;;;13.50;75.70;;;;;;5036975;28;20092;-56
2021/03/18 12:18:03;;;;;;;5.68;3.35;;;13.60;75.70;;;;;;5037108;28;20041;-56
2021/03/18 12:20:30;;;;;;;6.32;3.42;;;13.70;75.80;;;;;;5003938;28;20508;-56
2021/03/18 12:23:02;;;;;;;3.70;1.83;;;13.80;74.80;;;;;;5036899;28;20095;-56
2021/03/18 12:25:30;;;;;;;2.15;1.40;;;13.90;74.20;;;;;;5020548;28;20114;-55
2021/03/18 12:27:58;;;;;;;2.47;1.40;;;13.90;73.70;;;;;;5036995;28;20120;-56
2021/03/18 12:30:26;;;;;;;5.80;2.85;;;13.90;73.60;;;;;;5045241;28;20068;-56
2021/03/18 12:32:53;;;;;;;5.93;2.63;;;13.90;74.20;;;;;;5040915;28;20154;-56
2021/03/18 12:35:24;;;;;;;3.95;2.63;;;13.90;74.10;;;;;;5057013;28;20075;-57
2021/03/18 12:37:55;;;;;;;3.15;1.63;;;13.90;73.90;;;;;;5057883;28;20536;-56
2021/03/18 12:40:26;;;;;;;3.92;2.05;;;13.90;73.80;;;;;;5057297;28;20127;-56
2021/03/18 12:42:54;;;;;;;3.28;1.88;;;13.90;74.10;;;;;;5057219;28;20106;-55
2021/03/18 12:45:22;;;;;;;2.60;1.50;;;14.00;74.10;;;;;;5056926;28;20091;-57
2021/03/18 12:47:49;;;;;;;14.80;6.65;;;13.90;73.50;;;;;;5040437;28;20056;-55
2021/03/18 12:50:23;;;;;;;12.98;5.13;;;13.90;73.70;;;;;;5057415;28;20048;-56
2021/03/18 12:52:50;;;;;;;4.47;2.05;;;13.90;73.70;;;;;;5074900;28;20045;-55
2021/03/18 12:55:18;;;;;;;2.80;1.63;;;13.80;72.60;;;;;;5057061;28;20052;-56
2021/03/18 12:57:52;;;;;;;5.78;2.55;;;13.70;71.90;;;;;;5040966;28;20052;-57
2021/03/18 13:00:29;;;;;;;3.65;1.52;;;13.70;74.10;;;;;;5056862;28;20503;-53
2021/03/18 13:02:57;;;;;;;4.57;2.28;;;13.70;72.10;;;;;;5055346;28;20048;-57
2021/03/18 13:05:27;;;;;;;8.77;2.78;;;13.70;73.00;;;;;;5073843;28;20041;-56
2021/03/18 13:07:56;;;;;;;4.88;2.10;;;13.60;72.90;;;;;;5055575;28;20085;-57
2021/03/18 13:10:27;;;;;;;3.30;1.65;;;13.50;73.20;;;;;;5056515;28;20049;-57
2021/03/18 13:12:55;;;;;;;2.58;1.70;;;13.20;72.40;;;;;;5054930;28;20106;-56
2021/03/18 13:15:23;;;;;;;2.65;1.90;;;13.10;73.80;;;;;;5073642;28;20414;-56
2021/03/18 13:17:56;;;;;;;2.45;1.52;;;13.10;74.20;;;;;;5056081;28;20048;-52